METAR Data
IDs: Format: Raw Decoded Include TAF

Data at: 1926 UTC 31 Jan 2023

KSET 311854Z AUTO 25006KT 10SM CLR M07/M16 A3042 RMK AO2 SLPNO T10721161
No TAF found for KSET

KSTL 311851Z 29005KT 10SM FEW150 SCT200 BKN250 M07/M16 A3041 RMK AO2 SLP317 T10721161 $

KSTL 311720Z 3118/0124 34008KT P6SM SCT250
  FM010000 VRB04KT P6SM BKN250